Time;durP1;ratioP1;P1;durP2;ratioP2;P2;SDS_P1;SDS_P2;PMS_P1;PMS_P2;Temp;Humidity;BMP_temperature;BMP_pressure;BME280_temperature;BME280_humidity;BME280_pressure;Samples;Min_cycle;Max_cycle;Signal;HPM_P1;HPM_P2
2023/04/17 00:01:42;;;;;;;19.48;8.18;;;8.90;99.90;;;;;;5039291;28;20120;-70
2023/04/17 00:04:11;;;;;;;23.88;8.98;;;8.90;99.90;;;;;;5030153;28;20022;-70
2023/04/17 00:06:38;;;;;;;18.83;8.67;;;8.90;99.90;;;;;;5027002;28;20120;-71
2023/04/17 00:09:03;;;;;;;19.60;8.65;;;8.90;99.90;;;;;;5039824;28;20040;-70
2023/04/17 00:11:32;;;;;;;20.98;8.55;;;8.90;99.90;;;;;;5040866;28;20026;-70
2023/04/17 00:13:57;;;;;;;26.48;8.60;;;8.90;99.90;;;;;;5036556;28;20498;-71
2023/04/17 00:16:25;;;;;;;23.48;7.97;;;8.80;99.90;;;;;;5027479;28;20044;-71
2023/04/17 00:18:57;;;;;;;18.42;7.88;;;8.80;99.90;;;;;;5038907;28;20033;-71
2023/04/17 00:21:28;;;;;;;25.70;8.88;;;8.80;99.90;;;;;;5044181;28;20045;-70
2023/04/17 00:23:54;;;;;;;21.73;8.85;;;8.80;99.90;;;;;;5029269;28;20025;-71
2023/04/17 00:26:23;;;;;;;23.73;9.20;;;8.80;99.90;;;;;;5040666;28;20043;-70
2023/04/17 00:28:50;;;;;;;27.40;10.10;;;8.80;99.90;;;;;;5039953;28;20098;-70
2023/04/17 00:31:19;;;;;;;26.45;10.15;;;8.80;99.90;;;;;;5035133;28;20033;-70
2023/04/17 00:33:54;;;;;;;23.77;7.95;;;8.80;99.90;;;;;;5041444;28;20053;-70
2023/04/17 00:36:26;;;;;;;22.42;9.68;;;8.80;99.90;;;;;;5034559;28;20401;-70
2023/04/17 00:38:58;;;;;;;22.02;8.93;;;8.80;99.90;;;;;;5047351;28;20056;-70
2023/04/17 00:41:23;;;;;;;26.88;9.35;;;8.80;99.90;;;;;;5031567;28;20049;-70
2023/04/17 00:43:49;;;;;;;22.73;9.52;;;8.80;99.90;;;;;;5031228;28;20029;-71
2023/04/17 00:46:15;;;;;;;20.30;8.23;;;8.80;99.90;;;;;;5036587;28;20061;-71
2023/04/17 00:48:46;;;;;;;23.92;7.80;;;8.80;99.90;;;;;;5047610;28;20111;-70
2023/04/17 00:51:12;;;;;;;23.23;9.23;;;8.80;99.90;;;;;;5039654;28;20029;-71
2023/04/17 00:53:44;;;;;;;26.10;9.43;;;8.80;99.90;;;;;;5039740;28;20048;-70
2023/04/17 00:56:13;;;;;;;34.83;10.48;;;8.80;99.90;;;;;;5041800;28;20029;-70
2023/04/17 00:58:39;;;;;;;25.30;9.63;;;8.80;99.90;;;;;;5036957;28;20090;-70
2023/04/17 01:01:05;;;;;;;29.25;9.52;;;8.80;99.90;;;;;;5030140;28;20544;-70
2023/04/17 01:03:31;;;;;;;20.83;9.80;;;8.80;99.90;;;;;;5040530;28;20032;-72
2023/04/17 01:05:57;;;;;;;25.63;9.65;;;8.90;99.90;;;;;;5036401;28;20712;-70
2023/04/17 01:08:26;;;;;;;29.77;10.20;;;8.90;99.90;;;;;;5030801;28;20021;-71
2023/04/17 01:10:52;;;;;;;27.33;10.70;;;8.90;99.90;;;;;;5031095;28;20039;-72
2023/04/17 01:13:17;;;;;;;24.83;9.98;;;8.90;99.90;;;;;;5033465;28;20196;-70
2023/04/17 01:15:43;;;;;;;28.90;11.05;;;8.90;99.90;;;;;;5045684;28;20037;-70
2023/04/17 01:18:09;;;;;;;27.15;10.55;;;8.90;99.90;;;;;;5032969;28;20034;-71
2023/04/17 01:20:50;;;;;;;23.80;10.27;;;8.90;99.90;;;;;;5031679;28;20040;-71
2023/04/17 01:23:15;;;;;;;24.75;10.27;;;8.90;99.90;;;;;;5025902;28;20041;-70
2023/04/17 01:25:50;;;;;;;20.77;8.75;;;8.80;99.90;;;;;;5025118;28;20039;-71
2023/04/17 01:28:16;;;;;;;21.58;8.35;;;8.80;99.90;;;;;;5034074;28;20043;-70
2023/04/17 01:30:50;;;;;;;20.00;7.78;;;8.80;99.90;;;;;;5045975;28;20029;-70
2023/04/17 01:33:22;;;;;;;20.80;8.77;;;8.80;99.90;;;;;;5038976;28;20059;-70
2023/04/17 01:35:51;;;;;;;17.83;8.70;;;8.80;99.90;;;;;;5029193;28;20033;-70
2023/04/17 01:38:16;;;;;;;19.92;8.88;;;8.70;99.90;;;;;;5041124;28;20033;-71
2023/04/17 01:40:42;;;;;;;22.50;8.93;;;8.70;99.90;;;;;;5034780;28;20029;-70
2023/04/17 01:43:10;;;;;;;25.52;8.70;;;8.80;99.90;;;;;;5028200;28;20542;-70
2023/04/17 01:45:42;;;;;;;21.52;8.82;;;8.70;99.90;;;;;;5028461;28;20132;-71
2023/04/17 01:48:07;;;;;;;21.15;8.50;;;8.70;99.90;;;;;;5030406;28;20032;-70
2023/04/17 01:50:33;;;;;;;15.68;7.80;;;8.70;99.90;;;;;;5046106;28;20024;-70
2023/04/17 01:53:01;;;;;;;23.48;8.85;;;8.80;99.90;;;;;;5033515;28;20036;-71
2023/04/17 01:55:27;;;;;;;22.77;8.63;;;8.80;99.90;;;;;;5045756;28;20089;-72
2023/04/17 01:57:53;;;;;;;23.05;9.32;;;8.70;99.90;;;;;;5032299;28;20041;-71
2023/04/17 02:00:24;;;;;;;19.40;8.80;;;8.70;99.90;;;;;;5045359;28;20040;-71
2023/04/17 02:02:50;;;;;;;20.23;7.28;;;8.70;99.90;;;;;;5037545;28;20534;-70
2023/04/17 02:05:21;;;;;;;22.92;9.55;;;8.70;99.90;;;;;;5043163;28;20045;-72
2023/04/17 02:07:49;;;;;;;19.25;8.23;;;8.70;99.90;;;;;;5048204;28;20032;-70
2023/04/17 02:10:15;;;;;;;18.92;8.77;;;8.70;99.90;;;;;;5031780;28;20033;-71
2023/04/17 02:12:40;;;;;;;20.15;9.07;;;8.70;99.90;;;;;;5034152;28;20033;-70
2023/04/17 02:15:06;;;;;;;20.38;9.23;;;8.70;99.90;;;;;;5041077;28;20063;-71
2023/04/17 02:17:32;;;;;;;19.67;8.77;;;8.70;99.90;;;;;;5030223;28;20040;-71
2023/04/17 02:19:57;;;;;;;19.05;8.40;;;8.70;99.90;;;;;;5035609;28;20017;-70
2023/04/17 02:22:29;;;;;;;24.75;9.35;;;8.70;99.90;;;;;;5031610;28;20029;-70
2023/04/17 02:24:54;;;;;;;21.30;9.35;;;8.70;99.90;;;;;;5034299;28;20128;-73
2023/04/17 02:27:26;;;;;;;22.13;8.45;;;8.70;99.90;;;;;;5025254;28;20033;-71
2023/04/17 02:29:55;;;;;;;18.35;7.97;;;8.80;99.90;;;;;;5034183;28;20063;-70
2023/04/17 02:32:23;;;;;;;21.40;8.23;;;8.70;99.90;;;;;;5042188;28;20041;-70
2023/04/17 02:34:53;;;;;;;19.15;8.00;;;8.70;99.90;;;;;;5037138;28;20482;-70
2023/04/17 02:37:19;;;;;;;23.48;7.32;;;8.70;99.90;;;;;;5037235;28;20049;-70
2023/04/17 02:39:47;;;;;;;17.02;7.20;;;8.70;99.90;;;;;;5035718;28;20029;-71
2023/04/17 02:42:22;;;;;;;15.07;6.53;;;8.70;99.90;;;;;;5044596;28;20063;-71
2023/04/17 02:44:54;;;;;;;15.02;6.88;;;8.70;99.90;;;;;;5039518;28;20025;-71
2023/04/17 02:47:22;;;;;;;26.67;7.60;;;8.70;99.90;;;;;;5023911;28;20030;-71
2023/04/17 02:49:48;;;;;;;20.38;8.10;;;8.60;99.90;;;;;;5045036;28;20021;-71
2023/04/17 02:52:13;;;;;;;17.40;7.13;;;8.70;99.90;;;;;;5033298;28;20658;-70
2023/04/17 02:54:39;;;;;;;18.90;7.45;;;8.70;99.90;;;;;;5024019;28;20087;-72
2023/04/17 02:57:04;;;;;;;16.52;7.82;;;8.70;99.90;;;;;;5024206;28;20040;-70
2023/04/17 02:59:30;;;;;;;21.90;8.20;;;8.70;99.90;;;;;;5025480;28;20030;-70
2023/04/17 03:01:58;;;;;;;20.85;7.65;;;8.70;99.90;;;;;;5023279;28;20029;-70
2023/04/17 03:04:37;;;;;;;15.50;6.93;;;8.60;99.90;;;;;;5030882;28;20450;-70
2023/04/17 03:07:03;;;;;;;17.60;7.43;;;8.70;99.90;;;;;;5031564;28;20513;-71
2023/04/17 03:09:29;;;;;;;20.55;8.43;;;8.70;99.90;;;;;;5038766;28;20083;-70
2023/04/17 03:11:55;;;;;;;15.63;7.20;;;8.70;99.90;;;;;;5034383;28;20497;-71
2023/04/17 03:14:21;;;;;;;16.10;7.13;;;8.70;99.90;;;;;;5036753;28;20041;-71
2023/04/17 03:16:47;;;;;;;19.48;8.15;;;8.70;99.90;;;;;;5030844;28;20033;-71
2023/04/17 03:19:12;;;;;;;15.90;7.55;;;8.70;99.90;;;;;;5027915;28;20049;-71
2023/04/17 03:21:41;;;;;;;18.52;7.28;;;8.70;99.90;;;;;;5028169;28;20355;-70
2023/04/17 03:24:07;;;;;;;12.88;6.47;;;8.70;99.90;;;;;;5037876;28;20033;-71
2023/04/17 03:26:36;;;;;;;15.60;7.72;;;8.70;99.90;;;;;;5027357;28;20046;-71
2023/04/17 03:29:01;;;;;;;18.98;6.85;;;8.70;99.90;;;;;;5025055;28;20040;-70
2023/04/17 03:31:27;;;;;;;15.60;7.03;;;8.70;99.90;;;;;;5042427;28;20021;-70
2023/04/17 03:33:55;;;;;;;14.82;7.22;;;8.70;99.90;;;;;;5030650;28;20026;-71
2023/04/17 03:36:25;;;;;;;21.55;7.57;;;8.70;99.90;;;;;;5039854;28;20043;-70
2023/04/17 03:38:51;;;;;;;14.07;6.72;;;8.70;99.90;;;;;;5046800;28;20100;-70
2023/04/17 03:41:25;;;;;;;18.38;6.78;;;8.70;99.90;;;;;;5036075;28;20124;-71
2023/04/17 03:43:51;;;;;;;15.65;6.90;;;8.70;99.90;;;;;;5038450;28;20031;-69
2023/04/17 03:46:26;;;;;;;16.63;6.68;;;8.70;99.90;;;;;;5040845;28;20037;-72
2023/04/17 03:48:51;;;;;;;21.33;7.32;;;8.60;99.90;;;;;;5050752;28;20421;-71
2023/04/17 03:51:17;;;;;;;13.27;6.35;;;8.60;99.90;;;;;;5048116;28;20041;-71
2023/04/17 03:53:49;;;;;;;17.50;7.60;;;8.60;99.90;;;;;;5042236;28;20435;-71
2023/04/17 03:56:14;;;;;;;16.15;8.43;;;8.60;99.90;;;;;;5042981;28;20036;-71
2023/04/17 03:58:40;;;;;;;15.73;6.70;;;8.60;99.90;;;;;;5037594;28;20071;-72
2023/04/17 04:01:13;;;;;;;13.38;6.50;;;8.60;99.90;;;;;;5043606;28;20033;-72
2023/04/17 04:03:47;;;;;;;16.92;6.97;;;8.60;99.90;;;;;;5042399;28;20134;-70
2023/04/17 04:06:13;;;;;;;21.05;7.35;;;8.60;99.90;;;;;;5040011;28;20037;-71
2023/04/17 04:08:39;;;;;;;21.38;7.70;;;8.60;99.90;;;;;;5044013;28;20030;-70
2023/04/17 04:11:07;;;;;;;18.98;7.93;;;8.70;99.90;;;;;;5042117;28;20124;-70
2023/04/17 04:13:33;;;;;;;19.23;7.68;;;8.70;99.90;;;;;;5047055;28;20025;-71
2023/04/17 04:15:59;;;;;;;21.27;8.75;;;8.70;99.90;;;;;;5047237;28;20039;-70
2023/04/17 04:18:24;;;;;;;20.58;8.32;;;8.70;99.90;;;;;;5048022;28;20114;-71
2023/04/17 04:20:53;;;;;;;21.05;9.55;;;8.70;99.90;;;;;;5046205;28;20693;-71
2023/04/17 04:23:19;;;;;;;23.17;9.32;;;8.70;99.90;;;;;;5043056;28;20041;-71
2023/04/17 04:25:48;;;;;;;23.15;9.32;;;8.70;99.90;;;;;;5034655;28;20672;-71
2023/04/17 04:28:14;;;;;;;21.05;9.00;;;8.70;99.90;;;;;;5028929;28;20045;-70
2023/04/17 04:30:49;;;;;;;24.67;9.35;;;8.70;99.90;;;;;;5041331;28;20122;-71
2023/04/17 04:33:20;;;;;;;24.77;10.07;;;8.70;99.90;;;;;;5041452;28;20041;-70
2023/04/17 04:35:47;;;;;;;18.33;8.68;;;8.70;99.90;;;;;;5033809;28;20036;-71
2023/04/17 04:38:14;;;;;;;20.85;9.27;;;8.70;99.90;;;;;;5032733;28;20049;-70
2023/04/17 04:40:44;;;;;;;25.00;9.75;;;8.60;99.90;;;;;;5035912;28;20033;-72
2023/04/17 04:43:09;;;;;;;19.20;8.80;;;8.70;99.90;;;;;;5042238;28;20044;-70
2023/04/17 04:45:38;;;;;;;20.60;8.52;;;8.60;99.90;;;;;;5032418;28;20319;-72
2023/04/17 04:48:03;;;;;;;18.48;8.32;;;8.70;99.90;;;;;;5042532;28;20094;-70
2023/04/17 04:50:29;;;;;;;22.58;9.45;;;8.70;99.90;;;;;;5035609;28;21571;-70
2023/04/17 04:52:55;;;;;;;21.20;8.48;;;8.60;99.90;;;;;;5035064;28;20065;-71
2023/04/17 04:55:20;;;;;;;23.70;9.45;;;8.60;99.90;;;;;;5026942;28;20111;-70
2023/04/17 04:57:52;;;;;;;29.90;9.57;;;8.60;99.90;;;;;;5036658;28;20034;-70
2023/04/17 05:00:18;;;;;;;23.73;10.63;;;8.60;99.90;;;;;;5026266;28;20119;-71
2023/04/17 05:02:49;;;;;;;22.50;9.40;;;8.60;99.90;;;;;;5030662;28;20615;-69
2023/04/17 05:05:21;;;;;;;20.98;9.25;;;8.70;99.90;;;;;;5038340;28;20670;-72
2023/04/17 05:07:46;;;;;;;28.45;9.70;;;8.70;99.90;;;;;;5035925;28;20037;-71
2023/04/17 05:10:18;;;;;;;21.88;9.18;;;8.80;99.90;;;;;;5040330;28;20041;-71
2023/04/17 05:12:46;;;;;;;27.35;10.73;;;8.70;99.90;;;;;;5036221;28;20079;-71
2023/04/17 05:15:12;;;;;;;23.95;9.90;;;8.70;99.90;;;;;;5030087;28;20029;-71
2023/04/17 05:17:38;;;;;;;23.80;9.65;;;8.70;99.90;;;;;;5040275;28;20443;-71
2023/04/17 05:20:14;;;;;;;20.92;8.30;;;8.70;99.90;;;;;;5036217;28;20036;-71
2023/04/17 05:22:40;;;;;;;18.92;8.95;;;8.70;99.90;;;;;;5039897;28;20037;-70
2023/04/17 05:25:06;;;;;;;21.42;8.85;;;8.70;99.90;;;;;;5036013;28;20094;-70
2023/04/17 05:27:34;;;;;;;18.67;8.93;;;8.70;99.90;;;;;;5035513;28;20558;-70
2023/04/17 05:30:00;;;;;;;23.45;9.20;;;8.70;99.90;;;;;;5025670;28;20091;-71
2023/04/17 05:32:25;;;;;;;18.67;9.10;;;8.80;99.90;;;;;;5039935;28;20587;-71
2023/04/17 05:34:54;;;;;;;24.30;8.45;;;8.80;99.90;;;;;;5033587;28;20934;-71
2023/04/17 05:37:20;;;;;;;23.08;9.48;;;8.90;99.90;;;;;;5037030;28;20040;-70
2023/04/17 05:39:45;;;;;;;22.02;8.35;;;8.80;99.90;;;;;;5037797;28;20060;-70
2023/04/17 05:42:11;;;;;;;19.60;8.55;;;8.80;99.90;;;;;;5032371;28;20017;-70
2023/04/17 05:44:39;;;;;;;23.05;9.35;;;8.90;99.90;;;;;;5026877;28;20053;-70
2023/04/17 05:47:05;;;;;;;29.75;8.43;;;8.90;99.90;;;;;;5029881;28;20025;-70
2023/04/17 05:49:34;;;;;;;22.30;9.02;;;8.90;99.90;;;;;;5043589;28;20772;-71
2023/04/17 05:51:59;;;;;;;21.83;9.02;;;8.90;99.90;;;;;;5025187;28;20072;-71
2023/04/17 05:54:27;;;;;;;21.65;9.48;;;8.90;99.90;;;;;;5040380;28;20056;-70
2023/04/17 05:56:56;;;;;;;18.70;8.73;;;8.80;99.90;;;;;;5034548;28;20512;-70
2023/04/17 05:59:22;;;;;;;23.55;9.23;;;8.80;99.90;;;;;;5033368;28;20095;-70
2023/04/17 06:01:47;;;;;;;25.65;10.32;;;8.80;99.90;;;;;;5033793;28;20486;-70
2023/04/17 06:04:13;;;;;;;19.45;9.25;;;8.80;99.90;;;;;;5025585;28;20478;-69
2023/04/17 06:06:39;;;;;;;22.20;9.25;;;8.80;99.90;;;;;;5030745;28;20021;-70
2023/04/17 06:09:06;;;;;;;19.35;8.93;;;8.90;99.90;;;;;;5033939;28;20128;-70
2023/04/17 06:11:32;;;;;;;23.27;9.50;;;8.80;99.90;;;;;;5042113;28;20116;-70
2023/04/17 06:13:57;;;;;;;19.88;9.10;;;8.80;99.90;;;;;;5038883;28;20116;-70
2023/04/17 06:16:23;;;;;;;26.80;10.25;;;8.80;99.90;;;;;;5041796;28;20048;-71
2023/04/17 06:18:49;;;;;;;18.65;8.82;;;8.80;99.90;;;;;;5040318;28;20891;-70
2023/04/17 06:21:15;;;;;;;18.33;8.77;;;8.80;99.90;;;;;;5035770;28;20045;-71
2023/04/17 06:23:43;;;;;;;20.10;8.45;;;8.80;99.90;;;;;;5036542;28;20036;-70
2023/04/17 06:26:11;;;;;;;18.38;8.25;;;8.80;99.90;;;;;;5030693;28;20041;-70
2023/04/17 06:28:36;;;;;;;18.38;8.05;;;8.80;99.90;;;;;;5039863;28;20083;-70
2023/04/17 06:31:08;;;;;;;20.55;8.85;;;8.80;99.90;;;;;;5027492;28;20611;-72
2023/04/17 06:33:33;;;;;;;20.52;7.70;;;8.90;99.90;;;;;;5033431;28;20025;-72
2023/04/17 06:36:08;;;;;;;21.08;8.45;;;8.90;99.90;;;;;;5039729;28;20037;-73
2023/04/17 06:38:36;;;;;;;19.13;8.70;;;8.90;99.90;;;;;;5040766;28;20032;-70
2023/04/17 06:41:05;;;;;;;22.48;8.82;;;9.00;99.90;;;;;;5039731;28;20318;-69
2023/04/17 06:43:30;;;;;;;24.30;9.10;;;9.00;99.90;;;;;;5034282;28;20037;-70
2023/04/17 06:45:59;;;;;;;19.45;9.02;;;9.10;99.90;;;;;;5042868;28;20497;-73
2023/04/17 06:48:28;;;;;;;21.00;8.57;;;9.20;99.90;;;;;;5038490;28;20440;-73
2023/04/17 06:50:56;;;;;;;23.67;9.15;;;9.20;99.90;;;;;;5041102;28;20047;-70
2023/04/17 06:53:25;;;;;;;20.92;8.07;;;9.30;99.90;;;;;;5031927;28;20076;-71
2023/04/17 06:55:54;;;;;;;20.25;8.00;;;9.30;99.90;;;;;;5031634;28;20519;-71
2023/04/17 06:58:26;;;;;;;19.60;8.18;;;9.30;99.90;;;;;;5029716;28;20029;-70
2023/04/17 07:00:54;;;;;;;18.23;8.88;;;9.40;99.90;;;;;;5042838;28;20036;-70
2023/04/17 07:03:20;;;;;;;19.25;8.52;;;9.40;99.90;;;;;;5033286;28;20065;-71
2023/04/17 07:05:49;;;;;;;19.60;8.43;;;9.40;99.90;;;;;;5036453;28;20099;-71
2023/04/17 07:08:17;;;;;;;20.92;8.90;;;9.30;99.90;;;;;;5025824;28;20037;-71
2023/04/17 07:10:48;;;;;;;19.30;8.48;;;9.40;99.90;;;;;;5034251;28;20044;-71
2023/04/17 07:13:14;;;;;;;23.02;9.02;;;9.20;99.90;;;;;;5027052;28;20043;-70
2023/04/17 07:15:43;;;;;;;16.33;8.23;;;9.20;99.90;;;;;;5037609;28;20396;-70
2023/04/17 07:18:14;;;;;;;20.55;8.88;;;9.20;99.90;;;;;;5038732;28;20481;-70
2023/04/17 07:20:43;;;;;;;19.92;8.77;;;9.20;99.90;;;;;;5041641;28;20033;-71
2023/04/17 07:23:12;;;;;;;20.73;8.32;;;9.20;99.90;;;;;;5028038;28;20044;-70
2023/04/17 07:25:38;;;;;;;19.40;8.40;;;9.20;99.90;;;;;;5037764;28;20432;-69
2023/04/17 07:28:03;;;;;;;21.45;8.70;;;9.20;99.90;;;;;;5028740;28;20024;-70
2023/04/17 07:30:32;;;;;;;21.00;9.10;;;9.20;99.90;;;;;;5033853;28;20040;-70
2023/04/17 07:33:01;;;;;;;22.52;9.10;;;9.20;99.90;;;;;;5029370;28;20083;-71
2023/04/17 07:35:32;;;;;;;24.25;9.02;;;9.30;99.90;;;;;;5025666;28;20087;-70
2023/04/17 07:38:00;;;;;;;21.33;9.20;;;9.40;99.90;;;;;;5030996;28;20025;-69
2023/04/17 07:40:26;;;;;;;21.77;8.82;;;9.50;99.90;;;;;;5036203;28;20041;-70
2023/04/17 07:42:55;;;;;;;20.08;9.52;;;9.50;99.90;;;;;;5032315;28;20034;-72
2023/04/17 07:45:24;;;;;;;23.23;9.20;;;9.60;99.90;;;;;;5035186;28;20087;-71
2023/04/17 07:47:52;;;;;;;21.90;8.73;;;9.70;99.90;;;;;;5038264;28;20025;-71
2023/04/17 07:50:21;;;;;;;21.65;9.18;;;9.70;99.90;;;;;;5050860;28;20036;-70
2023/04/17 07:52:49;;;;;;;23.63;8.73;;;9.80;99.90;;;;;;5023166;28;20042;-70
2023/04/17 07:55:18;;;;;;;23.38;9.38;;;9.80;99.90;;;;;;5025794;28;20457;-71
2023/04/17 07:57:48;;;;;;;22.33;9.38;;;9.80;99.90;;;;;;5038630;28;20029;-72
2023/04/17 08:00:15;;;;;;;25.27;10.48;;;9.80;99.90;;;;;;5030936;28;20048;-71
2023/04/17 08:02:43;;;;;;;23.10;9.05;;;9.90;99.90;;;;;;5024558;28;20030;-69
2023/04/17 08:05:09;;;;;;;21.48;9.75;;;10.00;99.90;;;;;;5024912;28;20037;-72
2023/04/17 08:07:42;;;;;;;18.80;9.40;;;10.00;99.90;;;;;;5030503;28;20080;-72
2023/04/17 08:10:10;;;;;;;23.92;10.32;;;10.00;99.90;;;;;;5033250;28;20028;-69
2023/04/17 08:12:39;;;;;;;23.52;10.07;;;10.00;99.90;;;;;;5030373;28;20022;-70
2023/04/17 08:15:08;;;;;;;24.48;9.80;;;10.10;99.90;;;;;;5036273;28;20471;-69
2023/04/17 08:17:37;;;;;;;23.00;9.80;;;10.00;99.90;;;;;;5037579;28;20025;-72
2023/04/17 08:20:10;;;;;;;26.15;9.98;;;10.00;99.90;;;;;;5035888;28;20021;-70
2023/04/17 08:22:40;;;;;;;25.08;9.95;;;9.90;99.90;;;;;;5037904;28;20029;-70
2023/04/17 08:25:08;;;;;;;25.52;11.73;;;10.00;99.90;;;;;;5035690;28;20034;-70
2023/04/17 08:27:35;;;;;;;23.63;9.35;;;10.00;99.90;;;;;;5039835;28;20072;-71
2023/04/17 08:30:01;;;;;;;26.55;10.43;;;10.10;99.90;;;;;;5029096;28;20082;-72
2023/04/17 08:32:27;;;;;;;23.20;9.73;;;10.20;99.90;;;;;;5032828;28;20509;-70
2023/04/17 08:34:57;;;;;;;24.20;10.52;;;10.30;99.90;;;;;;5047572;28;20163;-70
2023/04/17 08:37:23;;;;;;;25.30;9.75;;;10.30;99.90;;;;;;5028706;28;20036;-71
2023/04/17 08:39:51;;;;;;;24.58;10.25;;;10.30;99.90;;;;;;5027963;28;20022;-69
2023/04/17 08:42:21;;;;;;;28.60;10.90;;;10.40;99.90;;;;;;5029831;28;20033;-70
2023/04/17 08:44:47;;;;;;;24.52;9.55;;;10.50;99.90;;;;;;5026252;28;20049;-69
2023/04/17 08:47:16;;;;;;;21.25;8.93;;;10.70;99.90;;;;;;5037318;28;20126;-70
2023/04/17 08:49:42;;;;;;;22.73;9.10;;;10.80;99.90;;;;;;5039503;28;20489;-71
2023/04/17 08:52:08;;;;;;;20.48;9.07;;;11.00;99.90;;;;;;5031715;28;20041;-71
2023/04/17 08:54:35;;;;;;;26.63;9.98;;;11.00;99.90;;;;;;5033605;28;20529;-71
2023/04/17 08:57:04;;;;;;;25.40;9.43;;;10.90;99.90;;;;;;5028959;28;20060;-71
2023/04/17 08:59:31;;;;;;;25.60;9.35;;;11.10;99.90;;;;;;5027666;28;20037;-72
2023/04/17 09:02:04;;;;;;;21.95;8.77;;;11.10;99.90;;;;;;5025377;28;20044;-70
2023/04/17 09:04:53;;;;;;;22.98;8.93;;;11.10;99.90;;;;;;5037899;28;20036;-71
2023/04/17 09:07:34;;;;;;;22.83;8.77;;;11.00;99.90;;;;;;5030345;28;20065;-71
2023/04/17 09:09:59;;;;;;;22.50;9.20;;;11.00;99.90;;;;;;5033025;28;20030;-71
2023/04/17 09:12:28;;;;;;;22.75;9.57;;;11.20;99.90;;;;;;5028610;28;20036;-69
2023/04/17 09:14:54;;;;;;;24.65;8.20;;;11.40;99.90;;;;;;5037510;28;20025;-70
2023/04/17 09:17:20;;;;;;;18.70;8.60;;;11.60;99.90;;;;;;5029693;28;20532;-72
2023/04/17 09:20:07;;;;;;;18.98;8.90;;;11.90;99.90;;;;;;5034853;28;20040;-71
2023/04/17 09:22:34;;;;;;;18.27;7.90;;;12.20;99.90;;;;;;5036460;28;20025;-71
2023/04/17 09:25:00;;;;;;;17.33;7.57;;;12.50;99.90;;;;;;5030881;28;20120;-70
2023/04/17 09:27:27;;;;;;;15.65;7.22;;;13.00;99.90;;;;;;5031104;28;20049;-71
2023/04/17 09:30:00;;;;;;;17.75;6.60;;;13.30;99.90;;;;;;5027685;28;20053;-71
2023/04/17 09:32:26;;;;;;;20.95;8.23;;;13.50;99.90;;;;;;5037736;28;20048;-71
2023/04/17 09:34:57;;;;;;;20.40;7.82;;;13.50;99.90;;;;;;5043628;28;20463;-69
2023/04/17 09:38:00;;;;;;;16.40;6.95;;;13.30;99.90;;;;;;5027738;28;20401;-71
2023/04/17 09:40:36;;;;;;;21.27;8.38;;;13.20;99.90;;;;;;5025782;28;20681;-70
2023/04/17 09:43:04;;;;;;;17.20;7.00;;;13.00;99.90;;;;;;5030774;28;20037;-70
2023/04/17 09:45:34;;;;;;;19.02;8.98;;;12.80;99.90;;;;;;5038510;28;20044;-71
2023/04/17 09:48:08;;;;;;;16.42;7.13;;;12.70;99.90;;;;;;5031370;28;20042;-71
2023/04/17 09:50:34;;;;;;;16.58;6.90;;;12.60;99.90;;;;;;5029128;28;20476;-71
2023/04/17 09:53:06;;;;;;;15.10;6.80;;;12.40;99.90;;;;;;5024234;28;20037;-70
2023/04/17 09:55:33;;;;;;;16.35;7.20;;;12.40;99.90;;;;;;5024486;28;20029;-70
2023/04/17 09:58:02;;;;;;;17.23;8.35;;;12.40;99.90;;;;;;5029285;28;20029;-70
2023/04/17 10:00:30;;;;;;;17.02;6.72;;;12.50;99.90;;;;;;5040615;28;20044;-71
2023/04/17 10:02:57;;;;;;;17.38;6.93;;;12.50;99.90;;;;;;5030787;28;20035;-71
2023/04/17 10:05:27;;;;;;;15.93;6.53;;;12.50;99.90;;;;;;5035000;28;20039;-71
2023/04/17 10:07:54;;;;;;;14.23;5.95;;;12.50;99.90;;;;;;5026430;28;20033;-70
2023/04/17 10:10:22;;;;;;;14.10;6.35;;;12.50;99.90;;;;;;5033393;28;20033;-69
2023/04/17 10:12:49;;;;;;;14.77;6.68;;;12.50;99.90;;;;;;5023166;28;20524;-70
2023/04/17 10:15:15;;;;;;;19.13;7.15;;;12.60;99.90;;;;;;5032897;28;20116;-71
2023/04/17 10:17:41;;;;;;;15.93;6.30;;;12.70;99.90;;;;;;5034167;28;20025;-70
2023/04/17 10:20:31;;;;;;;14.27;6.82;;;12.70;99.90;;;;;;5044851;28;20036;-70
2023/04/17 10:22:57;;;;;;;16.15;7.05;;;12.60;99.90;;;;;;5036960;28;20056;-71
2023/04/17 10:25:26;;;;;;;13.73;7.05;;;12.60;99.90;;;;;;5026926;28;20142;-70
2023/04/17 10:27:57;;;;;;;17.30;6.80;;;12.80;99.90;;;;;;5027310;28;20609;-71
2023/04/17 10:30:25;;;;;;;15.00;6.80;;;12.80;99.90;;;;;;5035155;28;20040;-70
2023/04/17 10:33:21;;;;;;;16.90;7.13;;;12.90;99.90;;;;;;5023985;28;20120;-71
2023/04/17 10:35:47;;;;;;;18.05;6.38;;;12.90;99.90;;;;;;5049878;28;20030;-70
2023/04/17 10:38:15;;;;;;;14.20;6.10;;;13.00;99.90;;;;;;5026183;28;20033;-70
2023/04/17 10:40:44;;;;;;;14.90;6.65;;;13.20;99.90;;;;;;5032840;28;20060;-70
2023/04/17 10:43:21;;;;;;;14.65;6.28;;;13.20;99.90;;;;;;5041009;28;20112;-71
2023/04/17 10:46:09;;;;;;;16.75;6.65;;;13.30;99.90;;;;;;5033847;28;20723;-71
2023/04/17 10:48:55;;;;;;;15.30;6.50;;;13.20;99.90;;;;;;5035857;28;20501;-71
2023/04/17 10:51:26;;;;;;;16.17;6.45;;;13.20;99.90;;;;;;5023907;28;20505;-70
2023/04/17 10:53:56;;;;;;;13.98;6.88;;;13.40;99.90;;;;;;5035825;28;20072;-70
2023/04/17 10:56:52;;;;;;;16.70;6.20;;;13.40;99.90;;;;;;5033873;28;20110;-70
2023/04/17 10:59:28;;;;;;;14.48;6.72;;;13.60;99.90;;;;;;5030795;28;20040;-70
2023/04/17 11:01:56;;;;;;;11.63;5.57;;;13.70;99.90;;;;;;5024944;28;20064;-70
2023/04/17 11:04:30;;;;;;;13.93;6.43;;;13.80;99.90;;;;;;5024780;28;20041;-70
2023/04/17 11:06:59;;;;;;;12.07;6.53;;;13.80;99.90;;;;;;5037919;28;20049;-74
2023/04/17 11:09:31;;;;;;;12.45;5.97;;;13.90;99.90;;;;;;5034753;28;20040;-70
2023/04/17 11:12:00;;;;;;;13.77;7.15;;;13.80;99.90;;;;;;5023326;28;20424;-71
2023/04/17 11:14:26;;;;;;;12.73;6.55;;;13.80;99.90;;;;;;5040754;28;20087;-70
2023/04/17 11:16:51;;;;;;;14.10;6.32;;;13.90;99.90;;;;;;5033393;28;20029;-70
2023/04/17 11:19:20;;;;;;;12.98;6.32;;;14.00;99.90;;;;;;5027072;28;20061;-71
2023/04/17 11:21:48;;;;;;;12.23;6.10;;;14.10;99.90;;;;;;5035161;28;20060;-71
2023/04/17 11:24:49;;;;;;;11.82;5.78;;;14.20;99.90;;;;;;5026073;28;20033;-70
2023/04/17 11:27:15;;;;;;;13.15;5.28;;;14.20;99.90;;;;;;4991889;28;20045;-72
2023/04/17 11:29:40;;;;;;;11.10;6.10;;;14.30;99.90;;;;;;5028411;28;20083;-70
2023/04/17 11:32:10;;;;;;;14.18;5.97;;;14.20;99.90;;;;;;5026420;28;20037;-71
2023/04/17 11:34:36;;;;;;;11.02;5.50;;;14.40;99.90;;;;;;5031477;28;20030;-70
2023/04/17 11:37:20;;;;;;;11.48;5.85;;;14.30;99.90;;;;;;5030877;28;20035;-71
2023/04/17 11:39:45;;;;;;;10.77;5.53;;;14.30;99.90;;;;;;5025681;28;20088;-71
2023/04/17 11:42:11;;;;;;;11.82;5.47;;;14.30;99.90;;;;;;5032223;28;20033;-72
2023/04/17 11:44:41;;;;;;;12.02;5.57;;;14.30;99.90;;;;;;5038568;28;20502;-73
2023/04/17 11:47:10;;;;;;;12.07;5.75;;;14.40;99.90;;;;;;5037910;28;20064;-70
2023/04/17 11:49:39;;;;;;;14.05;6.03;;;14.50;99.90;;;;;;5025490;28;20390;-72
2023/04/17 11:52:05;;;;;;;16.42;5.53;;;14.60;99.90;;;;;;5036013;28;20087;-70
2023/04/17 11:54:37;;;;;;;8.63;4.82;;;14.60;99.90;;;;;;5046856;28;20059;-70
2023/04/17 11:57:16;;;;;;;14.45;5.55;;;14.60;99.90;;;;;;5031485;28;20045;-70
2023/04/17 11:59:43;;;;;;;12.38;5.72;;;14.70;99.90;;;;;;5035885;28;20382;-70
2023/04/17 12:02:12;;;;;;;14.23;5.43;;;14.70;99.90;;;;;;5030847;28;20065;-70
2023/04/17 12:04:38;;;;;;;12.68;5.90;;;14.80;99.90;;;;;;5037964;28;20695;-70
2023/04/17 12:07:07;;;;;;;11.13;5.65;;;14.90;99.90;;;;;;5034473;28;20033;-70
2023/04/17 12:09:34;;;;;;;12.02;5.63;;;15.00;99.90;;;;;;5040923;28;20541;-71
2023/04/17 12:12:03;;;;;;;12.48;5.80;;;15.00;99.90;;;;;;5030531;28;20033;-70
2023/04/17 12:14:32;;;;;;;10.75;5.60;;;15.00;99.90;;;;;;5028802;28;20140;-71
2023/04/17 12:16:58;;;;;;;15.50;6.50;;;14.80;99.90;;;;;;5036081;28;20178;-71
2023/04/17 12:19:25;;;;;;;13.20;6.78;;;14.70;99.90;;;;;;5035808;28;20489;-71
2023/04/17 12:21:55;;;;;;;11.18;5.80;;;14.60;99.90;;;;;;5035039;28;20428;-69
2023/04/17 12:24:26;;;;;;;14.40;6.28;;;14.70;99.90;;;;;;5029293;28;20034;-70
2023/04/17 12:26:52;;;;;;;14.52;6.68;;;14.80;99.90;;;;;;5045580;28;20113;-73
2023/04/17 12:29:24;;;;;;;13.10;6.05;;;14.80;99.90;;;;;;5044432;28;20136;-71
2023/04/17 12:31:55;;;;;;;14.35;6.25;;;14.90;99.90;;;;;;5037670;28;20084;-70
2023/04/17 12:34:24;;;;;;;11.25;6.25;;;15.00;99.90;;;;;;5034220;28;20111;-70
2023/04/17 12:36:59;;;;;;;14.85;6.85;;;14.90;99.90;;;;;;5031339;28;20098;-70
2023/04/17 12:39:24;;;;;;;15.18;6.50;;;14.70;99.90;;;;;;5033413;28;20680;-71
2023/04/17 12:41:53;;;;;;;15.60;7.03;;;14.50;99.90;;;;;;5031864;28;20037;-70
2023/04/17 12:44:18;;;;;;;14.88;6.72;;;14.30;99.90;;;;;;5044426;28;20048;-70
2023/04/17 12:46:50;;;;;;;13.18;6.90;;;14.30;99.90;;;;;;5033881;28;20033;-72
2023/04/17 12:49:16;;;;;;;12.98;6.40;;;14.30;99.90;;;;;;5034435;28;20049;-71
2023/04/17 12:51:59;;;;;;;14.82;6.68;;;14.40;99.90;;;;;;5047219;28;20380;-70